createdAt,value
2017-06-19T00:02:15.902Z,49.60
2017-06-19T00:04:41.941Z,50.10
2017-06-19T00:07:08.002Z,50.00
2017-06-19T00:09:34.045Z,50.10
2017-06-19T00:12:00.089Z,50.20
2017-06-19T00:14:26.138Z,50.10
2017-06-19T00:16:52.202Z,50.10
2017-06-19T00:19:18.250Z,49.80
2017-06-19T00:21:44.311Z,49.60
2017-06-19T00:24:10.373Z,49.60
2017-06-19T00:26:36.418Z,49.50
2017-06-19T00:29:02.459Z,49.50
2017-06-19T00:31:28.518Z,49.60
2017-06-19T00:33:54.565Z,49.90
2017-06-19T00:36:20.608Z,49.70
2017-06-19T00:38:46.669Z,49.80
2017-06-19T00:41:12.714Z,49.40
2017-06-19T00:43:38.767Z,49.60
2017-06-19T00:46:04.818Z,49.60
2017-06-19T00:48:30.865Z,49.90
2017-06-19T00:50:56.918Z,49.70
2017-06-19T00:53:22.982Z,49.90
2017-06-19T00:55:49.038Z,50.10
2017-06-19T00:58:15.104Z,50.00
2017-06-19T01:00:41.150Z,49.90
2017-06-19T01:03:07.938Z,50.00
2017-06-19T01:05:33.995Z,50.00
2017-06-19T01:08:00.047Z,50.60
2017-06-19T01:10:26.108Z,50.20
2017-06-19T01:12:52.189Z,50.60
2017-06-19T01:15:18.238Z,50.80
2017-06-19T01:31:14.066Z,50.30
2017-06-19T01:33:40.113Z,50.50
2017-06-19T01:36:06.154Z,50.90
2017-06-19T01:38:32.190Z,51.00
2017-06-19T01:40:58.238Z,51.10
2017-06-19T01:43:25.029Z,51.30
2017-06-19T01:45:51.079Z,51.30
2017-06-19T01:48:17.137Z,51.20
2017-06-19T01:50:43.197Z,51.30
2017-06-19T01:53:09.288Z,50.90
2017-06-19T01:55:35.337Z,51.20
2017-06-19T01:58:01.410Z,51.30
2017-06-19T02:00:27.458Z,51.40
2017-06-19T02:02:54.248Z,51.80
2017-06-19T02:05:20.298Z,51.80
2017-06-19T02:07:46.342Z,52.00
2017-06-19T02:10:12.394Z,51.80
2017-06-19T02:12:38.438Z,51.90
2017-06-19T02:15:04.502Z,52.00
2017-06-19T02:17:30.550Z,52.00
2017-06-19T02:19:56.616Z,51.80
2017-06-19T02:22:22.678Z,51.50
2017-06-19T02:24:48.718Z,51.80
2017-06-19T02:27:14.770Z,51.90
2017-06-19T02:29:40.824Z,51.70
2017-06-19T02:32:06.886Z,51.70
2017-06-19T02:34:32.934Z,51.80
2017-06-19T02:36:59.003Z,51.80
2017-06-19T02:39:25.050Z,51.80
2017-06-19T02:41:51.097Z,51.90
2017-06-19T02:44:17.150Z,52.00
2017-06-19T02:46:43.946Z,51.40
2017-06-19T02:49:09.998Z,51.40
2017-06-19T02:51:36.049Z,51.60
2017-06-19T02:54:02.098Z,51.80
2017-06-19T02:56:28.134Z,51.90
2017-06-19T02:58:54.197Z,52.10
2017-06-19T03:01:20.259Z,51.80
2017-06-19T03:03:46.305Z,52.00
2017-06-19T03:06:12.342Z,51.40
2017-06-19T03:08:38.374Z,51.40
2017-06-19T03:11:04.418Z,51.50
2017-06-19T03:13:30.461Z,51.20
2017-06-19T03:15:56.511Z,51.80
2017-06-19T03:18:22.554Z,51.80
2017-06-19T03:20:48.613Z,51.80
2017-06-19T03:23:14.667Z,52.30
2017-06-19T03:25:41.442Z,52.10
2017-06-19T03:28:07.477Z,51.70
2017-06-19T03:30:33.535Z,52.00
2017-06-19T03:32:59.579Z,52.20
2017-06-19T03:35:25.625Z,52.20
2017-06-19T03:37:51.669Z,52.40
2017-06-19T03:40:17.710Z,51.60
2017-06-19T03:42:43.760Z,51.70
2017-06-19T03:45:09.810Z,52.00
2017-06-19T03:47:35.869Z,51.80
2017-06-19T03:50:01.907Z,51.50
2017-06-19T03:52:27.950Z,52.00
2017-06-19T03:54:53.986Z,52.30
2017-06-19T03:57:20.022Z,52.30
2017-06-19T03:59:46.078Z,52.60
2017-06-19T04:02:12.113Z,52.40
2017-06-19T04:04:38.150Z,51.80
2017-06-19T04:07:04.190Z,51.80
2017-06-19T04:09:30.242Z,51.50
2017-06-19T04:11:56.278Z,51.90
2017-06-19T04:14:22.322Z,52.10
2017-06-19T04:16:48.397Z,52.70
2017-06-19T04:19:14.438Z,52.60
2017-06-19T04:21:40.494Z,52.40
2017-06-19T04:24:06.541Z,52.50
2017-06-19T04:26:32.589Z,52.70
2017-06-19T04:28:58.633Z,53.00
2017-06-19T04:31:24.665Z,53.20
2017-06-19T04:33:50.709Z,53.40
2017-06-19T04:36:16.743Z,53.10
2017-06-19T04:38:42.783Z,52.20
2017-06-19T04:41:08.826Z,52.10
2017-06-19T04:43:34.861Z,52.30
2017-06-19T04:46:00.908Z,52.50
2017-06-19T04:48:26.951Z,52.20
2017-06-19T04:50:53.000Z,52.20
2017-06-19T04:53:19.058Z,52.10
2017-06-19T04:55:45.111Z,52.20
2017-06-19T04:58:11.162Z,51.90
2017-06-19T05:00:37.217Z,51.80
2017-06-19T05:03:03.294Z,51.40
2017-06-19T05:05:29.345Z,51.70
2017-06-19T05:07:55.445Z,51.90
2017-06-19T05:10:21.502Z,52.00
2017-06-19T05:12:47.568Z,51.70
2017-06-19T05:15:13.628Z,52.00
2017-06-19T05:17:39.690Z,52.80
2017-06-19T05:20:05.762Z,53.60
2017-06-19T05:22:31.847Z,53.20
2017-06-19T05:24:57.895Z,52.40
2017-06-19T05:27:23.966Z,52.00
2017-06-19T05:29:50.015Z,51.80
2017-06-19T05:32:16.077Z,51.60
2017-06-19T05:34:42.148Z,52.30
2017-06-19T05:37:08.200Z,51.70
2017-06-19T05:39:34.257Z,51.90
2017-06-19T05:42:00.312Z,51.60
2017-06-19T05:44:26.358Z,51.40
2017-06-19T05:46:52.419Z,51.60
2017-06-19T05:49:18.468Z,51.40
2017-06-19T05:51:44.529Z,51.20
2017-06-19T05:54:10.578Z,51.30
2017-06-19T05:56:36.617Z,51.70
2017-06-19T05:59:02.670Z,51.20
2017-06-19T06:01:28.719Z,50.90
2017-06-19T06:03:54.754Z,51.30
2017-06-19T06:06:20.791Z,51.50
2017-06-19T06:08:46.822Z,51.20
2017-06-19T06:11:12.883Z,51.20
2017-06-19T06:13:38.954Z,51.00
2017-06-19T06:16:19.989Z,50.80
2017-06-19T06:18:46.038Z,50.60
2017-06-19T06:21:12.098Z,50.50
2017-06-19T06:23:38.142Z,50.70
2017-06-19T06:26:04.933Z,51.20
2017-06-19T06:28:30.974Z,50.50
2017-06-19T06:30:57.014Z,50.60
2017-06-19T06:33:23.063Z,50.50
2017-06-19T06:35:50.782Z,50.80
2017-06-19T06:38:16.894Z,50.70
2017-06-19T06:40:42.953Z,50.80
2017-06-19T06:43:09.001Z,50.60
2017-06-19T06:45:35.053Z,50.60
2017-06-19T06:48:01.101Z,50.20
2017-06-19T06:50:27.162Z,50.40
2017-06-19T06:52:53.209Z,49.60
2017-06-19T06:55:20.004Z,50.60
2017-06-19T06:57:46.057Z,50.20
2017-06-19T07:00:12.386Z,50.20
2017-06-19T07:02:38.430Z,50.00
2017-06-19T07:05:04.477Z,50.20
2017-06-19T07:07:30.533Z,50.10
2017-06-19T07:09:56.591Z,50.10
2017-06-19T07:12:22.665Z,49.70
2017-06-19T07:14:48.716Z,49.90
2017-06-19T07:17:14.766Z,50.20
2017-06-19T07:19:40.819Z,49.90
2017-06-19T07:22:07.627Z,49.80
2017-06-19T07:24:33.679Z,49.80
2017-06-19T07:26:59.731Z,50.00
2017-06-19T07:29:25.782Z,50.10
2017-06-19T07:31:51.838Z,49.90
2017-06-19T07:34:17.909Z,49.70
2017-06-19T07:36:43.978Z,49.70
2017-06-19T07:39:10.038Z,49.70
2017-06-19T07:41:36.854Z,49.40
2017-06-19T07:44:02.998Z,49.50
2017-06-19T07:46:29.056Z,49.50
2017-06-19T07:48:55.174Z,49.50
2017-06-19T07:51:21.257Z,49.20
2017-06-19T07:53:47.318Z,49.10
2017-06-19T07:56:13.370Z,49.20
2017-06-19T07:58:39.422Z,49.10
2017-06-19T08:01:05.489Z,49.00
2017-06-19T08:03:31.542Z,47.90
2017-06-19T08:05:57.823Z,48.90
2017-06-19T08:08:23.899Z,48.80
2017-06-19T08:10:49.959Z,49.10
2017-06-19T08:13:16.019Z,48.50
2017-06-19T08:15:42.061Z,48.60
2017-06-19T08:18:08.122Z,48.80
2017-06-19T08:20:34.201Z,48.90
2017-06-19T08:23:00.274Z,49.10
2017-06-19T08:25:26.327Z,48.50
2017-06-19T08:27:52.650Z,48.60
2017-06-19T08:30:18.708Z,48.30
2017-06-19T08:32:44.775Z,48.40
2017-06-19T08:35:10.837Z,49.10
2017-06-19T08:37:36.894Z,48.30
2017-06-19T08:40:02.954Z,48.20
2017-06-19T08:42:29.003Z,48.20
2017-06-19T08:44:55.054Z,48.00
2017-06-19T08:47:21.109Z,48.10
2017-06-19T08:49:47.181Z,48.10
2017-06-19T08:52:13.230Z,47.90
2017-06-19T08:54:39.305Z,48.10
2017-06-19T08:57:05.373Z,48.10
2017-06-19T08:59:31.431Z,47.80
2017-06-19T09:01:57.526Z,47.60
2017-06-19T09:04:24.373Z,47.90
2017-06-19T09:06:50.438Z,47.50
2017-06-19T09:09:16.493Z,47.30
2017-06-19T09:11:42.638Z,47.80
2017-06-19T09:14:08.694Z,47.40
2017-06-19T09:16:34.762Z,47.50
2017-06-19T09:19:00.831Z,47.30
2017-06-19T09:21:26.897Z,47.30
2017-06-19T09:23:52.943Z,47.30
2017-06-19T09:26:19.174Z,47.20
2017-06-19T09:28:45.237Z,47.20
2017-06-19T09:31:11.312Z,47.30
2017-06-19T09:33:37.478Z,47.20
2017-06-19T09:36:03.534Z,46.90
2017-06-19T09:38:29.600Z,46.90
2017-06-19T09:40:55.658Z,47.00
2017-06-19T09:43:21.717Z,47.10
2017-06-19T09:45:47.898Z,47.20
2017-06-19T09:48:13.969Z,47.10
2017-06-19T09:50:40.019Z,47.10
2017-06-19T09:53:06.811Z,46.80
2017-06-19T09:55:32.962Z,46.60
2017-06-19T09:57:58.998Z,46.70
2017-06-19T10:00:25.046Z,47.00
2017-06-19T10:02:51.094Z,47.00
2017-06-19T10:05:17.162Z,47.10
2017-06-19T10:07:43.198Z,47.00
2017-06-19T10:10:09.235Z,47.10
2017-06-19T10:12:36.039Z,47.70
2017-06-19T10:15:02.090Z,47.20
2017-06-19T10:17:29.130Z,47.20
2017-06-19T10:19:55.161Z,47.10
2017-06-19T10:22:21.191Z,47.20
2017-06-19T10:24:47.225Z,47.10
2017-06-19T10:27:13.270Z,47.20
2017-06-19T10:29:39.327Z,47.20
2017-06-19T10:32:11.505Z,47.20
2017-06-19T10:34:37.552Z,47.10
2017-06-19T10:37:03.598Z,47.20
2017-06-19T10:39:29.670Z,47.10
2017-06-19T10:41:55.806Z,47.10
2017-06-19T10:44:21.851Z,47.10
2017-06-19T10:46:47.910Z,47.60
2017-06-19T10:49:13.950Z,47.00
2017-06-19T10:51:40.000Z,47.00
2017-06-19T10:54:06.048Z,47.00
2017-06-19T10:56:32.134Z,47.10
2017-06-19T10:58:58.218Z,47.10
2017-06-19T11:01:24.538Z,47.00
2017-06-19T11:03:50.599Z,47.00
2017-06-19T11:06:17.406Z,47.10
2017-06-19T11:08:43.457Z,47.10
2017-06-19T11:11:09.518Z,47.20
2017-06-19T11:13:35.574Z,47.20
2017-06-19T11:16:01.630Z,47.20
2017-06-19T11:18:27.694Z,47.20
2017-06-19T11:20:53.759Z,47.10
2017-06-19T11:23:19.977Z,47.10
2017-06-19T11:25:46.026Z,47.10
2017-06-19T11:28:12.102Z,47.10
2017-06-19T11:30:39.034Z,47.00
2017-06-19T11:33:05.107Z,47.00
2017-06-19T11:35:31.153Z,47.00
2017-06-19T11:37:57.206Z,46.90
2017-06-19T11:40:24.034Z,46.90
2017-06-19T11:42:50.078Z,46.90
2017-06-19T11:45:17.095Z,46.80
2017-06-19T11:47:43.142Z,46.80
2017-06-19T11:50:09.190Z,46.80
2017-06-19T11:52:35.230Z,46.80
2017-06-19T11:55:01.270Z,46.80
2017-06-19T11:57:27.313Z,46.70
2017-06-19T11:59:53.353Z,46.70
2017-06-19T12:02:19.417Z,46.70
2017-06-19T12:04:45.453Z,46.70
2017-06-19T12:07:11.806Z,46.70
2017-06-19T12:09:37.895Z,46.60
2017-06-19T12:12:04.681Z,46.60
2017-06-19T12:14:30.726Z,46.60
2017-06-19T12:16:56.762Z,46.50
2017-06-19T12:19:22.802Z,46.50
2017-06-19T12:21:48.843Z,46.40
2017-06-19T12:24:14.898Z,46.30
2017-06-19T12:26:41.017Z,46.20
2017-06-19T12:29:07.275Z,46.20
2017-06-19T12:31:33.323Z,46.20
2017-06-19T12:33:59.374Z,46.10
2017-06-19T12:36:25.422Z,46.00
2017-06-19T12:38:51.462Z,46.30
2017-06-19T12:41:17.506Z,46.30
2017-06-19T12:43:43.550Z,46.00
2017-06-19T12:46:09.594Z,45.90
2017-06-19T12:48:35.625Z,45.90
2017-06-19T12:51:01.810Z,45.70
2017-06-19T12:53:27.869Z,45.50
2017-06-19T12:55:53.911Z,45.30
2017-06-19T12:58:19.950Z,45.10
2017-06-19T13:00:45.992Z,44.80
2017-06-19T13:03:12.044Z,44.60
2017-06-19T13:05:38.245Z,44.40
2017-06-19T13:08:04.341Z,44.30
2017-06-19T13:10:31.154Z,43.90
2017-06-19T13:12:57.278Z,43.90
2017-06-19T13:15:23.334Z,43.70
2017-06-19T13:17:49.386Z,43.40
2017-06-19T13:20:15.436Z,43.20
2017-06-19T13:22:41.531Z,43.10
2017-06-19T13:25:07.570Z,42.90
2017-06-19T13:27:33.611Z,42.80
2017-06-19T13:29:59.657Z,42.60
2017-06-19T13:32:25.718Z,42.40
2017-06-19T13:34:51.781Z,42.20
2017-06-19T13:37:17.829Z,42.20
2017-06-19T13:39:43.878Z,42.10
2017-06-19T13:42:09.917Z,42.40
2017-06-19T13:44:35.970Z,42.30
2017-06-19T13:47:02.755Z,41.70
2017-06-19T13:49:28.818Z,41.60
2017-06-19T13:51:54.858Z,41.70
2017-06-19T13:54:20.905Z,41.60
2017-06-19T13:56:47.230Z,41.40
2017-06-19T13:59:13.275Z,41.20
2017-06-19T14:01:39.317Z,41.30
2017-06-19T14:04:05.354Z,41.80
2017-06-19T14:06:31.404Z,42.10
2017-06-19T14:08:58.190Z,41.70
2017-06-19T14:11:24.231Z,42.00
2017-06-19T14:13:50.301Z,41.90
2017-06-19T14:16:16.401Z,41.90
2017-06-19T14:18:42.474Z,41.70
2017-06-19T14:21:08.547Z,41.70
2017-06-19T14:23:34.590Z,41.40
2017-06-19T14:26:00.642Z,41.00
2017-06-19T14:28:27.466Z,40.40
2017-06-19T14:30:53.510Z,40.40
2017-06-19T14:33:19.654Z,40.60
2017-06-19T14:35:45.705Z,39.90
2017-06-19T14:38:11.746Z,40.20
2017-06-19T14:40:37.791Z,39.40
2017-06-19T14:43:03.830Z,38.80
2017-06-19T14:45:29.878Z,38.80
2017-06-19T14:47:55.917Z,38.50
2017-06-19T14:50:21.994Z,38.50
2017-06-19T14:52:48.057Z,38.40
2017-06-19T14:55:14.103Z,37.90
2017-06-19T14:57:40.154Z,38.20
2017-06-19T15:00:06.205Z,37.90
2017-06-19T15:02:32.245Z,37.70
2017-06-19T15:04:59.025Z,37.40
2017-06-19T15:07:25.077Z,37.40
2017-06-19T15:09:51.150Z,37.40
2017-06-19T15:12:17.189Z,37.20
2017-06-19T15:14:43.271Z,37.20
2017-06-19T15:17:09.314Z,36.90
2017-06-19T15:19:36.099Z,37.20
2017-06-19T15:22:20.003Z,37.20
2017-06-19T15:24:46.047Z,37.60
2017-06-19T15:27:12.098Z,36.40
2017-06-19T15:29:38.147Z,36.10
2017-06-19T15:32:04.215Z,36.10
2017-06-19T15:34:30.990Z,36.30
2017-06-19T15:36:57.027Z,36.30
2017-06-19T15:39:23.097Z,36.10
2017-06-19T15:41:49.174Z,36.00
2017-06-19T15:44:15.217Z,36.10
2017-06-19T15:46:41.270Z,36.20
2017-06-19T15:49:08.061Z,36.70
2017-06-19T15:51:34.112Z,36.80
2017-06-19T15:54:00.162Z,36.40
2017-06-19T15:56:26.204Z,36.50
2017-06-19T15:58:52.996Z,36.50
2017-06-19T16:01:20.047Z,36.40
2017-06-19T16:03:46.085Z,36.40
2017-06-19T16:06:12.139Z,36.50
2017-06-19T16:08:38.186Z,36.60
2017-06-19T16:11:04.238Z,36.50
2017-06-19T16:13:30.298Z,36.40
2017-06-19T16:15:56.362Z,36.30
2017-06-19T16:18:22.402Z,36.00
2017-06-19T16:20:48.453Z,36.40
2017-06-19T16:23:14.493Z,36.30
2017-06-19T16:25:40.534Z,36.30
2017-06-19T16:28:06.574Z,35.90
2017-06-19T16:30:33.357Z,37.10
2017-06-19T16:32:59.410Z,36.40
2017-06-19T16:35:25.454Z,36.00
2017-06-19T16:37:51.510Z,36.10
2017-06-19T16:40:17.562Z,36.00
2017-06-19T16:42:43.605Z,36.40
2017-06-19T16:45:09.650Z,36.30
2017-06-19T16:47:35.681Z,36.10
2017-06-19T16:50:01.714Z,36.30
2017-06-19T16:52:28.726Z,36.00
2017-06-19T16:54:54.754Z,35.90
2017-06-19T16:57:20.794Z,36.00
2017-06-19T16:59:46.845Z,36.10
2017-06-19T17:02:12.898Z,36.10
2017-06-19T17:04:38.934Z,36.00
2017-06-19T17:07:04.998Z,36.20
2017-06-19T17:09:31.029Z,35.90
2017-06-19T17:11:57.110Z,35.90
2017-06-19T17:14:23.170Z,35.90
2017-06-19T17:16:49.214Z,35.70
2017-06-19T17:19:15.266Z,36.10
2017-06-19T17:21:41.340Z,35.40
2017-06-19T17:24:07.389Z,35.60
2017-06-19T17:26:33.434Z,35.90
2017-06-19T17:28:59.470Z,36.00
2017-06-19T17:31:25.514Z,35.90
2017-06-19T17:33:51.558Z,36.10
2017-06-19T17:36:17.611Z,36.10
2017-06-19T17:38:43.655Z,36.00
2017-06-19T17:41:09.693Z,35.70
2017-06-19T17:43:35.737Z,36.00
2017-06-19T17:46:01.775Z,36.10
2017-06-19T17:48:27.810Z,36.30
2017-06-19T17:50:53.869Z,36.30
2017-06-19T17:53:19.914Z,36.20
2017-06-19T17:55:45.962Z,36.20
2017-06-19T17:58:12.005Z,36.10
2017-06-19T18:00:38.046Z,36.50
2017-06-19T18:03:04.090Z,36.20
2017-06-19T18:05:30.149Z,36.40
2017-06-19T18:07:56.202Z,36.30
2017-06-19T18:10:22.246Z,36.30
2017-06-19T18:12:48.286Z,36.20
2017-06-19T18:15:14.334Z,36.20
2017-06-19T18:17:40.405Z,36.30
2017-06-19T18:20:06.459Z,36.40
2017-06-19T18:22:32.498Z,36.30
2017-06-19T18:24:58.547Z,36.40
2017-06-19T18:27:24.596Z,36.30
2017-06-19T18:29:56.825Z,36.30
2017-06-19T18:32:22.870Z,36.30
2017-06-19T18:34:48.914Z,36.40
2017-06-19T18:37:14.967Z,36.50
2017-06-19T18:39:41.008Z,36.60
2017-06-19T18:42:07.046Z,36.50
2017-06-19T18:44:33.085Z,36.50
2017-06-19T18:46:59.122Z,36.70
2017-06-19T18:49:25.174Z,36.60
2017-06-19T18:51:51.242Z,36.70
2017-06-19T18:54:17.298Z,36.80
2017-06-19T18:56:43.346Z,36.70
2017-06-19T18:59:09.393Z,36.70
2017-06-19T19:01:35.440Z,36.80
2017-06-19T19:04:01.499Z,36.90
2017-06-19T19:06:27.561Z,36.80
2017-06-19T19:09:08.570Z,37.10
2017-06-19T19:11:34.619Z,37.10
2017-06-19T19:14:00.683Z,37.20
2017-06-19T19:16:26.744Z,37.30
2017-06-19T19:18:52.799Z,37.10
2017-06-19T19:21:18.865Z,37.40
2017-06-19T19:23:44.928Z,37.30
2017-06-19T19:26:10.994Z,37.50
2017-06-19T19:28:37.038Z,37.50
2017-06-19T19:31:03.086Z,38.20
2017-06-19T19:33:29.134Z,37.70
2017-06-19T19:35:55.177Z,37.70
2017-06-19T19:38:21.241Z,37.80
2017-06-19T19:40:47.286Z,38.00
2017-06-19T19:43:13.342Z,38.20
2017-06-19T19:45:39.385Z,38.20
2017-06-19T19:48:05.417Z,38.50
2017-06-19T19:50:31.495Z,38.40
2017-06-19T19:52:57.546Z,38.60
2017-06-19T19:55:38.555Z,38.80
2017-06-19T19:58:05.344Z,39.10
2017-06-19T20:00:31.406Z,39.10
2017-06-19T20:02:57.467Z,39.10
2017-06-19T20:05:23.513Z,39.20
2017-06-19T20:07:49.578Z,39.40
2017-06-19T20:10:15.621Z,39.50
2017-06-19T20:12:42.405Z,39.60
2017-06-19T20:15:08.457Z,39.70
2017-06-19T20:17:34.510Z,39.80
2017-06-19T20:20:00.558Z,40.00
2017-06-19T20:22:27.355Z,40.50
2017-06-19T20:24:53.419Z,40.50
2017-06-19T20:27:19.468Z,40.40
2017-06-19T20:29:45.505Z,40.80
2017-06-19T20:32:11.552Z,40.90
2017-06-19T20:34:37.605Z,41.20
2017-06-19T20:37:03.641Z,41.20
2017-06-19T20:39:29.694Z,41.40
2017-06-19T20:41:55.742Z,41.50
2017-06-19T20:44:21.786Z,41.50
2017-06-19T20:46:47.817Z,41.50
2017-06-19T20:49:13.870Z,41.70
2017-06-19T20:51:39.921Z,41.70
2017-06-19T20:54:05.966Z,42.20
2017-06-19T20:56:32.038Z,42.00
2017-06-19T20:58:58.098Z,42.00
2017-06-19T21:01:24.141Z,42.10
2017-06-19T21:03:50.206Z,42.20
2017-06-19T21:06:16.256Z,42.20
2017-06-19T21:08:42.318Z,42.10
2017-06-19T21:11:08.366Z,42.20
2017-06-19T21:13:34.426Z,42.30
2017-06-19T21:16:00.509Z,42.80
2017-06-19T21:18:26.558Z,42.30
2017-06-19T21:20:52.610Z,42.40
2017-06-19T21:23:19.412Z,43.20
2017-06-19T21:25:45.500Z,42.60
2017-06-19T21:28:11.558Z,42.50
2017-06-19T21:30:37.606Z,42.60
2017-06-19T21:33:03.672Z,42.60
2017-06-19T21:35:29.734Z,42.70
2017-06-19T21:37:55.798Z,42.80
2017-06-19T21:40:21.846Z,42.80
2017-06-19T21:42:48.641Z,42.90
2017-06-19T21:45:14.709Z,42.90
2017-06-19T21:47:40.759Z,42.90
2017-06-19T21:50:06.807Z,42.90
2017-06-19T21:52:32.848Z,42.90
2017-06-19T21:54:58.906Z,42.90
2017-06-19T21:57:24.950Z,43.00
2017-06-19T21:59:51.009Z,42.90
2017-06-19T22:02:17.042Z,43.10
2017-06-19T22:04:43.090Z,43.00
2017-06-19T22:07:09.138Z,43.40
2017-06-19T22:09:35.925Z,43.50
2017-06-19T22:12:01.982Z,43.30
2017-06-19T22:14:28.034Z,43.30
2017-06-19T22:16:54.083Z,43.40
2017-06-19T22:19:20.159Z,43.40
2017-06-19T22:22:05.011Z,43.90
2017-06-19T22:24:31.058Z,43.80
2017-06-19T22:26:57.122Z,43.90
2017-06-19T22:29:23.165Z,43.70
2017-06-19T22:31:49.246Z,43.90
2017-06-19T22:34:16.037Z,44.70
2017-06-19T22:36:42.099Z,43.90
2017-06-19T22:39:08.151Z,44.00
2017-06-19T22:41:34.198Z,44.10
2017-06-19T22:44:00.243Z,43.90
2017-06-19T22:46:26.289Z,44.10
2017-06-19T22:48:52.354Z,44.00
2017-06-19T22:51:18.418Z,44.20
2017-06-19T22:53:44.486Z,44.40
2017-06-19T22:56:10.542Z,44.60
2017-06-19T22:58:36.602Z,44.60
2017-06-19T23:01:02.658Z,44.70
2017-06-19T23:03:43.699Z,44.50
2017-06-19T23:06:09.743Z,44.80
2017-06-19T23:08:50.778Z,44.30
2017-06-19T23:11:16.837Z,44.30
2017-06-19T23:13:42.894Z,44.40
2017-06-19T23:16:08.965Z,44.30
2017-06-19T23:18:35.017Z,44.50
2017-06-19T23:21:01.074Z,44.70
2017-06-19T23:23:27.130Z,44.60
2017-06-19T23:25:53.203Z,44.40
2017-06-19T23:28:19.285Z,44.50
2017-06-19T23:30:45.338Z,44.50
2017-06-19T23:33:11.396Z,44.60
2017-06-19T23:35:37.450Z,44.60
2017-06-19T23:38:03.510Z,44.70
2017-06-19T23:40:29.564Z,44.60
2017-06-19T23:42:55.622Z,44.70
2017-06-19T23:45:21.686Z,44.60
2017-06-19T23:47:47.754Z,44.80
2017-06-19T23:50:13.819Z,44.70
2017-06-19T23:52:39.882Z,44.60
2017-06-19T23:55:05.934Z,44.50
2017-06-19T23:57:31.983Z,44.30
2017-06-19T23:59:58.035Z,44.40
